Strona główna
METAR-TAF:

METAR-TAF

Lotnisko :

Port lotniczy Sam Ratulangi

Manado, Indonezja

Szerokość geograficzna: 01-32N, Długość geograficzna: 124-55E, wysokość: 80 m

Aktualna obserwacja pogody

Raport powstał 13 minut temu, godzina 13:00 UTC
Wiatr 2 kt z kierunków zmiennych
Temperatura 25°C
Wilgotność 83%
Ciśnienie 1009 hPa
Widzialność 10 km lub więcej
Mało chmury na wysokości 2100 ft

METAR: WAMM 211300Z VRB02KT 9999 FEW021 25/22 Q1009 NOSIG

czas: 20:13 (13:13 UTC)

Prognoza

Raport powstał 2 godziny i 13 minut temu, godzina 11:00 UTC
Prognoza ważna od 21 godzina 12 UTC do 22 godzina 18 UTC
Wiatr 2 kt z kierunków zmiennych
Widzialność: 9000 m
Mało chmury na wysokości 2100 ft
Stopniowe zmiany
od 21 godzina 23 UTC do 22 godzina 01 UTC
Wiatr 8 kt od południe

TAF: WAMM 211100Z 2112/2218 VRB02KT 9000 FEW021 BECMG 2123/2201 17008KT

Obserwacja i prognoza pogody dla ponad 4000 lotnisk (raport METAR i TAF).

Dostępne stacje oznaczono żółtymi i czerwonymi punktami na mapie.

Najedź kursorem aby zobaczyć nazwę stacji.

Kliknij aby zobaczyć obserwacje i prognozy pogody.

Aby zmienić mapę: kliknij na zielony przycisk z czarnym krzyżykiem, aby powiększyć; na zielony przycisk z myślnikiem, aby pomniejszyć; na zielone strzałki, aby przejść do map sąsiednich.


METAR-TAF: